sensor_id;sensor_type;location;lat;lon;timestamp;P1;durP1;ratioP1;P2;durP2;ratioP2
12445;SDS011;6287;50.984;7.022;2023-06-24T00:02:14;8.32;;;5.40;;
12445;SDS011;6287;50.984;7.022;2023-06-24T00:04:39;7.72;;;5.55;;
12445;SDS011;6287;50.984;7.022;2023-06-24T00:07:07;6.60;;;4.68;;
12445;SDS011;6287;50.984;7.022;2023-06-24T00:09:38;6.18;;;5.55;;
12445;SDS011;6287;50.984;7.022;2023-06-24T00:12:04;6.32;;;5.55;;
12445;SDS011;6287;50.984;7.022;2023-06-24T00:14:35;5.78;;;4.85;;
12445;SDS011;6287;50.984;7.022;2023-06-24T00:17:02;5.40;;;4.60;;
12445;SDS011;6287;50.984;7.022;2023-06-24T00:19:35;6.40;;;5.63;;
12445;SDS011;6287;50.984;7.022;2023-06-24T00:22:03;7.68;;;5.43;;
12445;SDS011;6287;50.984;7.022;2023-06-24T00:24:31;5.85;;;5.25;;
12445;SDS011;6287;50.984;7.022;2023-06-24T00:27:02;6.10;;;5.07;;
12445;SDS011;6287;50.984;7.022;2023-06-24T00:29:27;7.00;;;5.90;;
12445;SDS011;6287;50.984;7.022;2023-06-24T00:31:53;5.73;;;5.13;;
12445;SDS011;6287;50.984;7.022;2023-06-24T00:34:21;6.47;;;4.63;;
12445;SDS011;6287;50.984;7.022;2023-06-24T00:36:48;8.30;;;5.55;;
12445;SDS011;6287;50.984;7.022;2023-06-24T00:39:17;7.65;;;5.22;;
12445;SDS011;6287;50.984;7.022;2023-06-24T00:41:42;7.82;;;5.55;;
12445;SDS011;6287;50.984;7.022;2023-06-24T00:44:08;6.83;;;5.50;;
12445;SDS011;6287;50.984;7.022;2023-06-24T00:46:34;5.93;;;5.30;;
12445;SDS011;6287;50.984;7.022;2023-06-24T00:49:00;6.25;;;5.50;;
12445;SDS011;6287;50.984;7.022;2023-06-24T00:51:27;6.75;;;5.28;;
12445;SDS011;6287;50.984;7.022;2023-06-24T00:53:56;5.87;;;5.30;;
12445;SDS011;6287;50.984;7.022;2023-06-24T00:56:30;6.07;;;5.50;;
12445;SDS011;6287;50.984;7.022;2023-06-24T00:59:00;7.27;;;5.73;;
12445;SDS011;6287;50.984;7.022;2023-06-24T01:01:32;6.60;;;5.10;;
12445;SDS011;6287;50.984;7.022;2023-06-24T01:04:06;6.15;;;5.10;;
12445;SDS011;6287;50.984;7.022;2023-06-24T01:06:34;8.20;;;5.20;;
12445;SDS011;6287;50.984;7.022;2023-06-24T01:09:01;8.03;;;5.60;;
12445;SDS011;6287;50.984;7.022;2023-06-24T01:11:27;5.38;;;4.82;;
12445;SDS011;6287;50.984;7.022;2023-06-24T01:13:57;5.43;;;4.90;;
12445;SDS011;6287;50.984;7.022;2023-06-24T01:16:28;7.25;;;5.55;;
12445;SDS011;6287;50.984;7.022;2023-06-24T01:18:57;6.20;;;5.07;;
12445;SDS011;6287;50.984;7.022;2023-06-24T01:30:36;6.03;;;4.60;;
12445;SDS011;6287;50.984;7.022;2023-06-24T01:33:20;6.37;;;5.00;;
12445;SDS011;6287;50.984;7.022;2023-06-24T01:35:51;6.80;;;5.05;;
12445;SDS011;6287;50.984;7.022;2023-06-24T01:39:06;5.83;;;5.07;;
12445;SDS011;6287;50.984;7.022;2023-06-24T01:41:15;7.07;;;4.67;;
12445;SDS011;6287;50.984;7.022;2023-06-24T01:43:47;5.23;;;4.60;;
12445;SDS011;6287;50.984;7.022;2023-06-24T01:46:15;7.43;;;5.57;;
12445;SDS011;6287;50.984;7.022;2023-06-24T01:48:46;4.87;;;4.37;;
12445;SDS011;6287;50.984;7.022;2023-06-24T01:51:17;6.47;;;4.93;;
12445;SDS011;6287;50.984;7.022;2023-06-24T01:53:49;6.73;;;4.83;;
12445;SDS011;6287;50.984;7.022;2023-06-24T01:56:22;5.90;;;5.00;;
12445;SDS011;6287;50.984;7.022;2023-06-24T01:58:50;5.47;;;4.47;;
12445;SDS011;6287;50.984;7.022;2023-06-24T02:01:18;5.77;;;4.57;;
12445;SDS011;6287;50.984;7.022;2023-06-24T02:03:45;5.67;;;4.73;;
12445;SDS011;6287;50.984;7.022;2023-06-24T02:06:12;6.43;;;4.60;;
12445;SDS011;6287;50.984;7.022;2023-06-24T02:08:39;5.85;;;4.43;;
12445;SDS011;6287;50.984;7.022;2023-06-24T02:11:08;6.03;;;4.93;;
12445;SDS011;6287;50.984;7.022;2023-06-24T02:13:35;6.00;;;5.13;;
12445;SDS011;6287;50.984;7.022;2023-06-24T02:16:02;5.80;;;5.20;;
12445;SDS011;6287;50.984;7.022;2023-06-24T02:18:31;8.43;;;5.30;;
12445;SDS011;6287;50.984;7.022;2023-06-24T02:20:58;5.93;;;4.90;;
12445;SDS011;6287;50.984;7.022;2023-06-24T02:23:25;6.73;;;4.87;;
12445;SDS011;6287;50.984;7.022;2023-06-24T02:25:53;6.57;;;4.73;;
12445;SDS011;6287;50.984;7.022;2023-06-24T02:28:19;6.73;;;5.30;;
12445;SDS011;6287;50.984;7.022;2023-06-24T02:30:45;6.60;;;4.90;;
12445;SDS011;6287;50.984;7.022;2023-06-24T02:33:12;7.93;;;5.70;;
12445;SDS011;6287;50.984;7.022;2023-06-24T02:35:40;6.27;;;4.73;;
12445;SDS011;6287;50.984;7.022;2023-06-24T02:38:10;7.53;;;5.30;;
12445;SDS011;6287;50.984;7.022;2023-06-24T02:40:36;6.40;;;4.60;;
12445;SDS011;6287;50.984;7.022;2023-06-24T02:43:09;5.70;;;5.10;;
12445;SDS011;6287;50.984;7.022;2023-06-24T02:45:39;8.98;;;5.60;;
12445;SDS011;6287;50.984;7.022;2023-06-24T02:48:09;7.70;;;5.17;;
12445;SDS011;6287;50.984;7.022;2023-06-24T02:50:39;5.97;;;5.00;;
12445;SDS011;6287;50.984;7.022;2023-06-24T02:53:09;6.00;;;4.50;;
12445;SDS011;6287;50.984;7.022;2023-06-24T02:55:40;5.67;;;4.63;;
12445;SDS011;6287;50.984;7.022;2023-06-24T02:58:09;5.20;;;4.57;;
12445;SDS011;6287;50.984;7.022;2023-06-24T03:00:40;5.63;;;4.50;;
12445;SDS011;6287;50.984;7.022;2023-06-24T03:03:06;4.85;;;4.35;;
12445;SDS011;6287;50.984;7.022;2023-06-24T03:05:34;5.07;;;4.57;;
12445;SDS011;6287;50.984;7.022;2023-06-24T03:08:00;8.87;;;5.03;;
12445;SDS011;6287;50.984;7.022;2023-06-24T03:10:28;5.63;;;4.80;;
12445;SDS011;6287;50.984;7.022;2023-06-24T03:12:56;7.53;;;5.20;;
12445;SDS011;6287;50.984;7.022;2023-06-24T03:15:22;5.53;;;4.70;;
12445;SDS011;6287;50.984;7.022;2023-06-24T03:17:55;8.53;;;5.00;;
12445;SDS011;6287;50.984;7.022;2023-06-24T03:20:23;7.13;;;5.63;;
12445;SDS011;6287;50.984;7.022;2023-06-24T03:22:51;5.57;;;4.93;;
12445;SDS011;6287;50.984;7.022;2023-06-24T03:25:17;5.60;;;5.00;;
12445;SDS011;6287;50.984;7.022;2023-06-24T03:27:43;7.07;;;6.17;;
12445;SDS011;6287;50.984;7.022;2023-06-24T03:30:11;9.20;;;5.67;;
12445;SDS011;6287;50.984;7.022;2023-06-24T03:32:39;7.10;;;4.90;;
12445;SDS011;6287;50.984;7.022;2023-06-24T03:35:12;6.13;;;4.77;;
12445;SDS011;6287;50.984;7.022;2023-06-24T03:37:38;7.97;;;5.50;;
12445;SDS011;6287;50.984;7.022;2023-06-24T03:40:06;5.63;;;4.60;;
12445;SDS011;6287;50.984;7.022;2023-06-24T03:42:32;6.67;;;4.93;;
12445;SDS011;6287;50.984;7.022;2023-06-24T03:44:58;5.90;;;5.03;;
12445;SDS011;6287;50.984;7.022;2023-06-24T03:47:24;5.13;;;4.60;;
12445;SDS011;6287;50.984;7.022;2023-06-24T03:49:51;6.07;;;5.10;;
12445;SDS011;6287;50.984;7.022;2023-06-24T03:52:17;6.67;;;5.20;;
12445;SDS011;6287;50.984;7.022;2023-06-24T03:54:45;6.17;;;4.93;;
12445;SDS011;6287;50.984;7.022;2023-06-24T03:57:13;6.17;;;5.13;;
12445;SDS011;6287;50.984;7.022;2023-06-24T03:59:41;6.75;;;5.20;;
12445;SDS011;6287;50.984;7.022;2023-06-24T04:02:07;8.52;;;5.18;;
12445;SDS011;6287;50.984;7.022;2023-06-24T04:04:33;6.90;;;5.47;;
12445;SDS011;6287;50.984;7.022;2023-06-24T04:07:02;7.10;;;5.63;;
12445;SDS011;6287;50.984;7.022;2023-06-24T04:09:32;5.43;;;4.70;;
12445;SDS011;6287;50.984;7.022;2023-06-24T04:12:00;5.47;;;4.95;;
12445;SDS011;6287;50.984;7.022;2023-06-24T04:14:29;6.57;;;5.20;;
12445;SDS011;6287;50.984;7.022;2023-06-24T04:16:57;5.75;;;4.93;;
12445;SDS011;6287;50.984;7.022;2023-06-24T04:19:22;6.78;;;5.40;;
12445;SDS011;6287;50.984;7.022;2023-06-24T04:21:48;5.60;;;4.93;;
12445;SDS011;6287;50.984;7.022;2023-06-24T04:24:21;6.70;;;5.37;;
12445;SDS011;6287;50.984;7.022;2023-06-24T04:26:47;7.03;;;5.20;;
12445;SDS011;6287;50.984;7.022;2023-06-24T04:29:17;7.10;;;5.03;;
12445;SDS011;6287;50.984;7.022;2023-06-24T04:31:44;7.63;;;5.07;;
12445;SDS011;6287;50.984;7.022;2023-06-24T04:34:12;6.93;;;5.80;;
12445;SDS011;6287;50.984;7.022;2023-06-24T04:36:40;6.35;;;5.65;;
12445;SDS011;6287;50.984;7.022;2023-06-24T04:39:08;7.83;;;5.40;;
12445;SDS011;6287;50.984;7.022;2023-06-24T04:41:33;8.23;;;5.73;;
12445;SDS011;6287;50.984;7.022;2023-06-24T04:43:59;8.60;;;6.50;;
12445;SDS011;6287;50.984;7.022;2023-06-24T04:46:24;8.13;;;5.90;;
12445;SDS011;6287;50.984;7.022;2023-06-24T04:48:50;6.82;;;5.63;;
12445;SDS011;6287;50.984;7.022;2023-06-24T04:51:16;9.13;;;5.57;;
12445;SDS011;6287;50.984;7.022;2023-06-24T04:53:44;6.15;;;5.18;;
12445;SDS011;6287;50.984;7.022;2023-06-24T04:56:12;9.85;;;5.53;;
12445;SDS011;6287;50.984;7.022;2023-06-24T04:58:40;7.38;;;5.40;;
12445;SDS011;6287;50.984;7.022;2023-06-24T05:01:05;5.90;;;5.20;;
12445;SDS011;6287;50.984;7.022;2023-06-24T05:03:34;6.10;;;5.50;;
12445;SDS011;6287;50.984;7.022;2023-06-24T05:06:00;8.07;;;5.35;;
12445;SDS011;6287;50.984;7.022;2023-06-24T05:08:26;6.35;;;4.85;;
12445;SDS011;6287;50.984;7.022;2023-06-24T05:10:51;9.13;;;5.45;;
12445;SDS011;6287;50.984;7.022;2023-06-24T05:13:17;5.97;;;5.38;;
12445;SDS011;6287;50.984;7.022;2023-06-24T05:15:42;5.20;;;4.57;;
12445;SDS011;6287;50.984;7.022;2023-06-24T05:18:08;8.05;;;5.57;;
12445;SDS011;6287;50.984;7.022;2023-06-24T05:20:33;6.55;;;5.30;;
12445;SDS011;6287;50.984;7.022;2023-06-24T05:23:01;6.70;;;5.32;;
12445;SDS011;6287;50.984;7.022;2023-06-24T05:25:27;7.85;;;5.30;;
12445;SDS011;6287;50.984;7.022;2023-06-24T05:27:53;6.38;;;4.75;;
12445;SDS011;6287;50.984;7.022;2023-06-24T05:30:25;5.28;;;4.78;;
12445;SDS011;6287;50.984;7.022;2023-06-24T05:32:51;9.80;;;5.65;;
12445;SDS011;6287;50.984;7.022;2023-06-24T05:35:16;6.05;;;5.10;;
12445;SDS011;6287;50.984;7.022;2023-06-24T05:37:44;5.93;;;5.15;;
12445;SDS011;6287;50.984;7.022;2023-06-24T05:40:10;7.57;;;5.03;;
12445;SDS011;6287;50.984;7.022;2023-06-24T05:42:37;5.63;;;4.75;;
12445;SDS011;6287;50.984;7.022;2023-06-24T05:45:03;5.50;;;5.00;;
12445;SDS011;6287;50.984;7.022;2023-06-24T05:47:34;6.45;;;5.13;;
12445;SDS011;6287;50.984;7.022;2023-06-24T05:50:00;7.50;;;5.22;;
12445;SDS011;6287;50.984;7.022;2023-06-24T05:52:25;6.43;;;5.65;;
12445;SDS011;6287;50.984;7.022;2023-06-24T05:54:53;6.28;;;5.47;;
12445;SDS011;6287;50.984;7.022;2023-06-24T05:57:21;6.97;;;5.38;;
12445;SDS011;6287;50.984;7.022;2023-06-24T05:59:51;6.22;;;5.45;;
12445;SDS011;6287;50.984;7.022;2023-06-24T06:02:21;5.68;;;4.63;;
12445;SDS011;6287;50.984;7.022;2023-06-24T06:04:47;6.00;;;5.00;;
12445;SDS011;6287;50.984;7.022;2023-06-24T06:07:13;6.47;;;5.18;;
12445;SDS011;6287;50.984;7.022;2023-06-24T06:09:41;5.53;;;4.75;;
12445;SDS011;6287;50.984;7.022;2023-06-24T06:12:08;6.03;;;4.80;;
12445;SDS011;6287;50.984;7.022;2023-06-24T06:14:34;6.32;;;5.05;;
12445;SDS011;6287;50.984;7.022;2023-06-24T06:17:02;6.40;;;4.90;;
12445;SDS011;6287;50.984;7.022;2023-06-24T06:19:28;9.02;;;4.90;;
12445;SDS011;6287;50.984;7.022;2023-06-24T06:21:53;6.13;;;5.25;;
12445;SDS011;6287;50.984;7.022;2023-06-24T06:24:19;6.82;;;5.38;;
12445;SDS011;6287;50.984;7.022;2023-06-24T06:26:44;5.95;;;5.05;;
12445;SDS011;6287;50.984;7.022;2023-06-24T06:29:11;5.85;;;4.93;;
12445;SDS011;6287;50.984;7.022;2023-06-24T06:31:39;5.00;;;4.50;;
12445;SDS011;6287;50.984;7.022;2023-06-24T06:34:04;5.70;;;4.78;;
12445;SDS011;6287;50.984;7.022;2023-06-24T06:36:30;5.53;;;4.95;;
12445;SDS011;6287;50.984;7.022;2023-06-24T06:38:56;7.32;;;4.75;;
12445;SDS011;6287;50.984;7.022;2023-06-24T06:41:24;7.53;;;5.20;;
12445;SDS011;6287;50.984;7.022;2023-06-24T06:43:52;6.75;;;5.50;;
12445;SDS011;6287;50.984;7.022;2023-06-24T06:46:18;5.32;;;4.70;;
12445;SDS011;6287;50.984;7.022;2023-06-24T06:48:46;5.70;;;5.13;;
12445;SDS011;6287;50.984;7.022;2023-06-24T06:51:16;6.13;;;4.82;;
12445;SDS011;6287;50.984;7.022;2023-06-24T06:53:43;6.38;;;5.05;;
12445;SDS011;6287;50.984;7.022;2023-06-24T06:56:16;6.72;;;5.10;;
12445;SDS011;6287;50.984;7.022;2023-06-24T06:58:49;7.53;;;5.32;;
12445;SDS011;6287;50.984;7.022;2023-06-24T07:01:15;12.65;;;7.13;;
12445;SDS011;6287;50.984;7.022;2023-06-24T07:03:41;13.80;;;9.35;;
12445;SDS011;6287;50.984;7.022;2023-06-24T07:06:06;8.05;;;5.38;;
12445;SDS011;6287;50.984;7.022;2023-06-24T07:08:34;7.32;;;5.53;;
12445;SDS011;6287;50.984;7.022;2023-06-24T07:11:05;7.50;;;5.78;;
12445;SDS011;6287;50.984;7.022;2023-06-24T07:13:31;7.65;;;5.78;;
12445;SDS011;6287;50.984;7.022;2023-06-24T07:15:57;6.90;;;5.68;;
12445;SDS011;6287;50.984;7.022;2023-06-24T07:18:23;9.05;;;5.70;;
12445;SDS011;6287;50.984;7.022;2023-06-24T07:20:52;8.15;;;5.28;;
12445;SDS011;6287;50.984;7.022;2023-06-24T07:23:18;6.65;;;4.60;;
12445;SDS011;6287;50.984;7.022;2023-06-24T07:25:44;6.03;;;4.97;;
12445;SDS011;6287;50.984;7.022;2023-06-24T07:28:09;6.75;;;5.35;;
12445;SDS011;6287;50.984;7.022;2023-06-24T07:30:37;7.20;;;5.15;;
12445;SDS011;6287;50.984;7.022;2023-06-24T07:33:03;5.78;;;5.03;;
12445;SDS011;6287;50.984;7.022;2023-06-24T07:35:35;6.25;;;5.20;;
12445;SDS011;6287;50.984;7.022;2023-06-24T07:38:03;6.28;;;5.05;;
12445;SDS011;6287;50.984;7.022;2023-06-24T07:40:29;5.97;;;5.32;;
12445;SDS011;6287;50.984;7.022;2023-06-24T07:42:54;7.88;;;5.18;;
12445;SDS011;6287;50.984;7.022;2023-06-24T07:45:22;7.22;;;5.50;;
12445;SDS011;6287;50.984;7.022;2023-06-24T07:47:48;9.35;;;6.07;;
12445;SDS011;6287;50.984;7.022;2023-06-24T07:50:19;8.68;;;5.13;;
12445;SDS011;6287;50.984;7.022;2023-06-24T07:52:50;5.30;;;4.38;;
12445;SDS011;6287;50.984;7.022;2023-06-24T07:55:19;10.40;;;7.10;;
12445;SDS011;6287;50.984;7.022;2023-06-24T07:57:46;6.75;;;4.20;;
12445;SDS011;6287;50.984;7.022;2023-06-24T08:00:12;5.03;;;4.50;;
12445;SDS011;6287;50.984;7.022;2023-06-24T08:02:39;4.95;;;4.28;;
12445;SDS011;6287;50.984;7.022;2023-06-24T08:05:06;5.85;;;4.80;;
12445;SDS011;6287;50.984;7.022;2023-06-24T08:07:36;5.43;;;4.43;;
12445;SDS011;6287;50.984;7.022;2023-06-24T08:10:02;6.75;;;4.45;;
12445;SDS011;6287;50.984;7.022;2023-06-24T08:12:29;5.20;;;3.53;;
12445;SDS011;6287;50.984;7.022;2023-06-24T08:14:57;6.28;;;4.25;;
12445;SDS011;6287;50.984;7.022;2023-06-24T08:17:22;4.22;;;3.83;;
12445;SDS011;6287;50.984;7.022;2023-06-24T08:19:54;5.30;;;3.85;;
12445;SDS011;6287;50.984;7.022;2023-06-24T08:22:21;6.95;;;5.30;;
12445;SDS011;6287;50.984;7.022;2023-06-24T08:24:47;4.03;;;3.60;;
12445;SDS011;6287;50.984;7.022;2023-06-24T08:27:13;4.65;;;4.15;;
12445;SDS011;6287;50.984;7.022;2023-06-24T08:29:38;5.95;;;5.13;;
12445;SDS011;6287;50.984;7.022;2023-06-24T08:32:04;5.28;;;3.80;;
12445;SDS011;6287;50.984;7.022;2023-06-24T08:34:31;5.35;;;4.20;;
12445;SDS011;6287;50.984;7.022;2023-06-24T08:37:00;4.95;;;4.03;;
12445;SDS011;6287;50.984;7.022;2023-06-24T08:39:30;4.72;;;3.38;;
12445;SDS011;6287;50.984;7.022;2023-06-24T08:41:56;4.93;;;3.55;;
12445;SDS011;6287;50.984;7.022;2023-06-24T08:44:23;4.43;;;3.47;;
12445;SDS011;6287;50.984;7.022;2023-06-24T08:46:48;4.35;;;3.75;;
12445;SDS011;6287;50.984;7.022;2023-06-24T08:51:54;5.10;;;4.13;;
12445;SDS011;6287;50.984;7.022;2023-06-24T08:54:27;5.00;;;3.10;;
12445;SDS011;6287;50.984;7.022;2023-06-24T08:56:53;4.78;;;3.40;;
12445;SDS011;6287;50.984;7.022;2023-06-24T08:59:19;6.68;;;4.43;;
12445;SDS011;6287;50.984;7.022;2023-06-24T09:01:47;4.00;;;3.08;;
12445;SDS011;6287;50.984;7.022;2023-06-24T09:04:13;5.82;;;3.42;;
12445;SDS011;6287;50.984;7.022;2023-06-24T09:06:39;6.50;;;4.00;;
12445;SDS011;6287;50.984;7.022;2023-06-24T09:09:16;5.18;;;3.35;;
12445;SDS011;6287;50.984;7.022;2023-06-24T09:14:22;5.78;;;3.80;;
12445;SDS011;6287;50.984;7.022;2023-06-24T09:17:00;3.85;;;3.45;;
12445;SDS011;6287;50.984;7.022;2023-06-24T09:19:28;4.68;;;3.55;;
12445;SDS011;6287;50.984;7.022;2023-06-24T09:21:54;5.28;;;3.50;;
12445;SDS011;6287;50.984;7.022;2023-06-24T09:24:26;3.90;;;3.30;;
12445;SDS011;6287;50.984;7.022;2023-06-24T09:26:55;3.97;;;3.05;;
12445;SDS011;6287;50.984;7.022;2023-06-24T09:29:22;4.15;;;3.30;;
12445;SDS011;6287;50.984;7.022;2023-06-24T09:31:53;4.80;;;3.78;;
12445;SDS011;6287;50.984;7.022;2023-06-24T09:34:22;3.95;;;3.10;;
12445;SDS011;6287;50.984;7.022;2023-06-24T09:36:51;3.55;;;3.10;;
12445;SDS011;6287;50.984;7.022;2023-06-24T09:39:18;4.65;;;3.28;;
12445;SDS011;6287;50.984;7.022;2023-06-24T09:41:50;3.28;;;2.53;;
12445;SDS011;6287;50.984;7.022;2023-06-24T09:44:16;3.83;;;2.67;;
12445;SDS011;6287;50.984;7.022;2023-06-24T09:46:44;3.15;;;2.80;;
12445;SDS011;6287;50.984;7.022;2023-06-24T09:49:10;5.70;;;3.15;;
12445;SDS011;6287;50.984;7.022;2023-06-24T09:51:37;5.53;;;3.72;;
12445;SDS011;6287;50.984;7.022;2023-06-24T09:54:06;4.15;;;3.63;;
12445;SDS011;6287;50.984;7.022;2023-06-24T09:56:36;4.03;;;3.10;;
12445;SDS011;6287;50.984;7.022;2023-06-24T09:59:06;4.82;;;2.92;;
12445;SDS011;6287;50.984;7.022;2023-06-24T10:01:35;5.28;;;3.50;;
12445;SDS011;6287;50.984;7.022;2023-06-24T10:04:03;4.22;;;3.40;;
12445;SDS011;6287;50.984;7.022;2023-06-24T10:06:30;2.92;;;2.58;;
12445;SDS011;6287;50.984;7.022;2023-06-24T10:09:04;2.50;;;2.30;;
12445;SDS011;6287;50.984;7.022;2023-06-24T10:11:37;3.33;;;3.03;;
12445;SDS011;6287;50.984;7.022;2023-06-24T10:14:03;5.68;;;4.25;;
12445;SDS011;6287;50.984;7.022;2023-06-24T10:16:31;3.90;;;2.90;;
12445;SDS011;6287;50.984;7.022;2023-06-24T10:18:59;2.88;;;2.47;;
12445;SDS011;6287;50.984;7.022;2023-06-24T10:27:15;3.00;;;2.70;;
12445;SDS011;6287;50.984;7.022;2023-06-24T10:29:45;3.08;;;2.28;;
12445;SDS011;6287;50.984;7.022;2023-06-24T10:32:14;5.32;;;3.08;;
12445;SDS011;6287;50.984;7.022;2023-06-24T10:34:53;5.80;;;2.85;;
12445;SDS011;6287;50.984;7.022;2023-06-24T10:37:23;3.38;;;2.88;;
12445;SDS011;6287;50.984;7.022;2023-06-24T10:39:52;3.00;;;2.45;;
12445;SDS011;6287;50.984;7.022;2023-06-24T10:45:20;2.50;;;2.30;;
12445;SDS011;6287;50.984;7.022;2023-06-24T10:47:49;3.30;;;2.10;;
12445;SDS011;6287;50.984;7.022;2023-06-24T10:50:21;2.90;;;2.50;;
12445;SDS011;6287;50.984;7.022;2023-06-24T10:52:51;3.13;;;2.15;;
12445;SDS011;6287;50.984;7.022;2023-06-24T10:55:21;2.60;;;2.40;;
12445;SDS011;6287;50.984;7.022;2023-06-24T10:57:49;2.33;;;2.13;;
12445;SDS011;6287;50.984;7.022;2023-06-24T11:00:17;2.83;;;2.00;;
12445;SDS011;6287;50.984;7.022;2023-06-24T11:02:46;2.67;;;2.25;;
12445;SDS011;6287;50.984;7.022;2023-06-24T11:05:13;2.70;;;2.50;;
12445;SDS011;6287;50.984;7.022;2023-06-24T11:07:39;2.40;;;2.20;;
12445;SDS011;6287;50.984;7.022;2023-06-24T11:10:10;2.58;;;2.38;;
12445;SDS011;6287;50.984;7.022;2023-06-24T11:12:39;3.42;;;2.53;;
12445;SDS011;6287;50.984;7.022;2023-06-24T11:15:11;3.30;;;2.40;;
12445;SDS011;6287;50.984;7.022;2023-06-24T11:17:40;2.83;;;2.35;;
12445;SDS011;6287;50.984;7.022;2023-06-24T11:20:09;3.17;;;2.28;;
12445;SDS011;6287;50.984;7.022;2023-06-24T11:22:41;1.98;;;1.88;;
12445;SDS011;6287;50.984;7.022;2023-06-24T11:27:45;2.28;;;2.08;;
12445;SDS011;6287;50.984;7.022;2023-06-24T11:30:13;1.92;;;1.83;;
12445;SDS011;6287;50.984;7.022;2023-06-24T11:32:39;2.67;;;1.80;;
12445;SDS011;6287;50.984;7.022;2023-06-24T11:35:09;2.38;;;2.17;;
12445;SDS011;6287;50.984;7.022;2023-06-24T11:37:48;1.90;;;1.80;;
12445;SDS011;6287;50.984;7.022;2023-06-24T11:40:16;3.17;;;1.90;;
12445;SDS011;6287;50.984;7.022;2023-06-24T11:42:46;2.53;;;1.92;;
12445;SDS011;6287;50.984;7.022;2023-06-24T11:45:13;2.17;;;1.80;;
12445;SDS011;6287;50.984;7.022;2023-06-24T11:47:40;2.30;;;2.10;;
12445;SDS011;6287;50.984;7.022;2023-06-24T11:50:10;2.83;;;1.80;;
12445;SDS011;6287;50.984;7.022;2023-06-24T11:55:01;2.10;;;2.00;;
12445;SDS011;6287;50.984;7.022;2023-06-24T12:00:26;3.08;;;2.00;;
12445;SDS011;6287;50.984;7.022;2023-06-24T12:02:55;2.58;;;2.00;;
12445;SDS011;6287;50.984;7.022;2023-06-24T12:05:28;1.80;;;1.63;;
12445;SDS011;6287;50.984;7.022;2023-06-24T12:07:59;2.15;;;1.95;;
12445;SDS011;6287;50.984;7.022;2023-06-24T12:10:27;2.90;;;2.28;;
12445;SDS011;6287;50.984;7.022;2023-06-24T12:13:03;2.03;;;1.58;;
12445;SDS011;6287;50.984;7.022;2023-06-24T12:15:31;2.88;;;2.08;;
12445;SDS011;6287;50.984;7.022;2023-06-24T12:17:56;2.42;;;1.90;;
12445;SDS011;6287;50.984;7.022;2023-06-24T12:20:26;1.80;;;1.70;;
12445;SDS011;6287;50.984;7.022;2023-06-24T12:22:52;2.10;;;1.90;;
12445;SDS011;6287;50.984;7.022;2023-06-24T12:25:20;2.35;;;2.10;;
12445;SDS011;6287;50.984;7.022;2023-06-24T12:27:47;2.05;;;1.88;;
12445;SDS011;6287;50.984;7.022;2023-06-24T12:30:13;2.03;;;1.85;;
12445;SDS011;6287;50.984;7.022;2023-06-24T12:32:41;3.03;;;2.30;;
12445;SDS011;6287;50.984;7.022;2023-06-24T12:35:10;2.95;;;2.35;;
12445;SDS011;6287;50.984;7.022;2023-06-24T12:37:37;2.80;;;2.10;;
12445;SDS011;6287;50.984;7.022;2023-06-24T12:40:03;2.05;;;1.85;;
12445;SDS011;6287;50.984;7.022;2023-06-24T12:42:32;1.98;;;1.75;;
12445;SDS011;6287;50.984;7.022;2023-06-24T12:44:58;3.97;;;2.15;;
12445;SDS011;6287;50.984;7.022;2023-06-24T12:47:25;1.83;;;1.73;;
12445;SDS011;6287;50.984;7.022;2023-06-24T12:49:53;2.20;;;2.00;;
12445;SDS011;6287;50.984;7.022;2023-06-24T12:52:21;2.13;;;1.92;;
12445;SDS011;6287;50.984;7.022;2023-06-24T12:54:46;2.53;;;2.08;;
12445;SDS011;6287;50.984;7.022;2023-06-24T12:57:14;2.10;;;1.73;;
12445;SDS011;6287;50.984;7.022;2023-06-24T12:59:42;2.30;;;2.05;;
12445;SDS011;6287;50.984;7.022;2023-06-24T13:02:08;2.25;;;2.00;;
12445;SDS011;6287;50.984;7.022;2023-06-24T13:04:33;2.25;;;2.10;;
12445;SDS011;6287;50.984;7.022;2023-06-24T13:07:01;2.28;;;2.08;;
12445;SDS011;6287;50.984;7.022;2023-06-24T13:09:30;2.80;;;2.20;;
12445;SDS011;6287;50.984;7.022;2023-06-24T13:11:55;2.47;;;2.28;;
12445;SDS011;6287;50.984;7.022;2023-06-24T13:14:21;2.15;;;1.95;;
12445;SDS011;6287;50.984;7.022;2023-06-24T13:16:46;2.20;;;2.00;;
12445;SDS011;6287;50.984;7.022;2023-06-24T13:19:12;2.63;;;1.98;;
12445;SDS011;6287;50.984;7.022;2023-06-24T13:21:40;3.28;;;2.28;;
12445;SDS011;6287;50.984;7.022;2023-06-24T13:24:06;3.08;;;1.77;;
12445;SDS011;6287;50.984;7.022;2023-06-24T13:26:34;3.55;;;2.08;;
12445;SDS011;6287;50.984;7.022;2023-06-24T13:29:02;3.05;;;2.20;;
12445;SDS011;6287;50.984;7.022;2023-06-24T13:31:32;2.40;;;2.20;;
12445;SDS011;6287;50.984;7.022;2023-06-24T13:33:58;2.25;;;2.05;;
12445;SDS011;6287;50.984;7.022;2023-06-24T13:36:31;2.30;;;2.00;;
12445;SDS011;6287;50.984;7.022;2023-06-24T13:39:00;2.30;;;2.10;;
12445;SDS011;6287;50.984;7.022;2023-06-24T13:41:25;2.53;;;2.17;;
12445;SDS011;6287;50.984;7.022;2023-06-24T13:43:55;2.45;;;2.22;;
12445;SDS011;6287;50.984;7.022;2023-06-24T13:46:22;2.40;;;2.05;;
12445;SDS011;6287;50.984;7.022;2023-06-24T13:48:50;2.75;;;1.95;;
12445;SDS011;6287;50.984;7.022;2023-06-24T13:51:16;1.80;;;1.70;;
12445;SDS011;6287;50.984;7.022;2023-06-24T13:53:45;2.30;;;2.10;;
12445;SDS011;6287;50.984;7.022;2023-06-24T13:56:19;2.28;;;1.73;;
12445;SDS011;6287;50.984;7.022;2023-06-24T13:58:49;2.13;;;2.00;;
12445;SDS011;6287;50.984;7.022;2023-06-24T14:01:20;2.65;;;2.45;;
12445;SDS011;6287;50.984;7.022;2023-06-24T14:03:47;2.88;;;2.10;;
12445;SDS011;6287;50.984;7.022;2023-06-24T14:06:17;2.20;;;2.00;;
12445;SDS011;6287;50.984;7.022;2023-06-24T14:08:46;2.20;;;1.98;;
12445;SDS011;6287;50.984;7.022;2023-06-24T14:11:11;3.35;;;2.28;;
12445;SDS011;6287;50.984;7.022;2023-06-24T14:13:42;2.35;;;2.10;;
12445;SDS011;6287;50.984;7.022;2023-06-24T14:16:10;2.53;;;1.90;;
12445;SDS011;6287;50.984;7.022;2023-06-24T14:18:39;2.25;;;2.13;;
12445;SDS011;6287;50.984;7.022;2023-06-24T14:21:06;2.40;;;2.20;;
12445;SDS011;6287;50.984;7.022;2023-06-24T14:23:32;1.73;;;1.60;;
12445;SDS011;6287;50.984;7.022;2023-06-24T14:26:00;2.78;;;1.90;;
12445;SDS011;6287;50.984;7.022;2023-06-24T14:28:28;2.35;;;2.15;;
12445;SDS011;6287;50.984;7.022;2023-06-24T14:30:56;2.28;;;1.88;;
12445;SDS011;6287;50.984;7.022;2023-06-24T14:33:22;2.72;;;1.95;;
12445;SDS011;6287;50.984;7.022;2023-06-24T14:35:50;2.03;;;1.92;;
12445;SDS011;6287;50.984;7.022;2023-06-24T14:38:16;2.38;;;1.70;;
12445;SDS011;6287;50.984;7.022;2023-06-24T14:40:41;2.10;;;1.63;;
12445;SDS011;6287;50.984;7.022;2023-06-24T14:43:12;1.98;;;1.88;;
12445;SDS011;6287;50.984;7.022;2023-06-24T14:45:37;2.30;;;1.90;;
12445;SDS011;6287;50.984;7.022;2023-06-24T14:48:05;2.30;;;2.10;;
12445;SDS011;6287;50.984;7.022;2023-06-24T14:50:31;1.80;;;1.70;;
12445;SDS011;6287;50.984;7.022;2023-06-24T14:52:57;4.95;;;2.42;;
12445;SDS011;6287;50.984;7.022;2023-06-24T14:55:24;2.10;;;1.73;;
12445;SDS011;6287;50.984;7.022;2023-06-24T14:57:50;2.83;;;2.38;;
12445;SDS011;6287;50.984;7.022;2023-06-24T15:00:16;2.35;;;2.00;;
12445;SDS011;6287;50.984;7.022;2023-06-24T15:02:41;2.42;;;2.22;;
12445;SDS011;6287;50.984;7.022;2023-06-24T15:05:07;2.15;;;1.90;;
12445;SDS011;6287;50.984;7.022;2023-06-24T15:07:40;1.73;;;1.63;;
12445;SDS011;6287;50.984;7.022;2023-06-24T15:10:10;2.08;;;1.80;;
12445;SDS011;6287;50.984;7.022;2023-06-24T15:12:38;1.88;;;1.77;;
12445;SDS011;6287;50.984;7.022;2023-06-24T15:15:05;1.60;;;1.50;;
12445;SDS011;6287;50.984;7.022;2023-06-24T15:17:31;1.90;;;1.80;;
12445;SDS011;6287;50.984;7.022;2023-06-24T15:20:00;1.70;;;1.60;;
12445;SDS011;6287;50.984;7.022;2023-06-24T15:22:28;1.70;;;1.60;;
12445;SDS011;6287;50.984;7.022;2023-06-24T15:24:54;1.92;;;1.65;;
12445;SDS011;6287;50.984;7.022;2023-06-24T15:27:22;1.70;;;1.60;;
12445;SDS011;6287;50.984;7.022;2023-06-24T15:29:55;1.35;;;1.25;;
12445;SDS011;6287;50.984;7.022;2023-06-24T15:32:21;1.67;;;1.55;;
12445;SDS011;6287;50.984;7.022;2023-06-24T15:34:49;1.38;;;1.27;;
12445;SDS011;6287;50.984;7.022;2023-06-24T15:37:14;1.70;;;1.60;;